sensor_id;sensor_type;location;lat;lon;timestamp;pressure;altitude;pressure_sealevel;temperature;humidity
54038;BME280;39954;48.844;9.726;2023-09-19T00:00:22;95746.22;;;14.73;100.00
54038;BME280;39954;48.844;9.726;2023-09-19T00:01:25;95748.22;;;14.70;100.00
54038;BME280;39954;48.844;9.726;2023-09-19T00:02:32;95741.00;;;14.73;100.00
54038;BME280;39954;48.844;9.726;2023-09-19T00:03:35;95743.84;;;14.70;100.00
54038;BME280;39954;48.844;9.726;2023-09-19T00:04:41;95749.31;;;14.67;100.00
54038;BME280;39954;48.844;9.726;2023-09-19T00:05:45;95744.22;;;14.66;100.00
54038;BME280;39954;48.844;9.726;2023-09-19T00:06:50;95750.41;;;14.65;100.00
54038;BME280;39954;48.844;9.726;2023-09-19T00:07:52;95748.47;;;14.67;100.00
54038;BME280;39954;48.844;9.726;2023-09-19T00:08:56;95744.44;;;14.63;100.00
54038;BME280;39954;48.844;9.726;2023-09-19T00:10:01;95740.28;;;14.60;100.00
54038;BME280;39954;48.844;9.726;2023-09-19T00:11:07;95744.44;;;14.63;100.00
54038;BME280;39954;48.844;9.726;2023-09-19T00:12:12;95740.16;;;14.62;100.00
54038;BME280;39954;48.844;9.726;2023-09-19T00:13:15;95739.22;;;14.63;100.00
54038;BME280;39954;48.844;9.726;2023-09-19T00:14:20;95731.72;;;14.58;100.00
54038;BME280;39954;48.844;9.726;2023-09-19T00:15:27;95736.97;;;14.58;100.00
54038;BME280;39954;48.844;9.726;2023-09-19T00:16:33;95741.81;;;14.51;100.00
54038;BME280;39954;48.844;9.726;2023-09-19T00:17:36;95744.66;;;14.48;100.00
54038;BME280;39954;48.844;9.726;2023-09-19T00:18:39;95750.59;;;14.50;100.00
54038;BME280;39954;48.844;9.726;2023-09-19T00:19:44;95751.78;;;14.46;100.00
54038;BME280;39954;48.844;9.726;2023-09-19T00:20:48;95756.06;;;14.47;100.00
54038;BME280;39954;48.844;9.726;2023-09-19T00:21:54;95749.28;;;14.45;100.00
54038;BME280;39954;48.844;9.726;2023-09-19T00:22:56;95751.06;;;14.44;100.00
54038;BME280;39954;48.844;9.726;2023-09-19T00:24:10;95751.91;;;14.45;100.00
54038;BME280;39954;48.844;9.726;2023-09-19T00:25:13;95751.78;;;14.46;100.00
54038;BME280;39954;48.844;9.726;2023-09-19T00:26:21;95749.41;;;14.43;100.00
54038;BME280;39954;48.844;9.726;2023-09-19T00:27:23;95747.38;;;14.47;100.00
54038;BME280;39954;48.844;9.726;2023-09-19T00:28:29;95753.69;;;14.44;100.00
54038;BME280;39954;48.844;9.726;2023-09-19T00:29:33;95756.53;;;14.41;100.00
54038;BME280;39954;48.844;9.726;2023-09-19T00:30:42;95752.97;;;14.42;100.00
54038;BME280;39954;48.844;9.726;2023-09-19T00:31:44;95757.50;;;14.40;100.00
54038;BME280;39954;48.844;9.726;2023-09-19T00:32:51;95748.44;;;14.44;100.00
54038;BME280;39954;48.844;9.726;2023-09-19T00:33:56;95756.53;;;14.41;100.00
54038;BME280;39954;48.844;9.726;2023-09-19T00:35:07;95752.97;;;14.42;100.00
54038;BME280;39954;48.844;9.726;2023-09-19T00:36:10;95746.81;;;14.43;100.00
54038;BME280;39954;48.844;9.726;2023-09-19T00:37:16;95754.41;;;14.46;100.00
54038;BME280;39954;48.844;9.726;2023-09-19T00:38:20;95757.97;;;14.45;100.00
54038;BME280;39954;48.844;9.726;2023-09-19T00:39:29;95760.94;;;14.41;100.00
54038;BME280;39954;48.844;9.726;2023-09-19T00:40:33;95764.38;;;14.41;100.00
54038;BME280;39954;48.844;9.726;2023-09-19T00:41:41;95765.59;;;14.37;100.00
54038;BME280;39954;48.844;9.726;2023-09-19T00:42:47;95763.22;;;14.34;100.00
54038;BME280;39954;48.844;9.726;2023-09-19T00:43:49;95767.13;;;14.28;100.00
54038;BME280;39954;48.844;9.726;2023-09-19T00:44:54;95770.56;;;14.29;100.00
54038;BME280;39954;48.844;9.726;2023-09-19T00:45:57;95773.88;;;14.31;100.00
54038;BME280;39954;48.844;9.726;2023-09-19T00:47:03;95777.19;;;14.33;100.00
54038;BME280;39954;48.844;9.726;2023-09-19T00:48:06;95769.84;;;14.38;100.00
54038;BME280;39954;48.844;9.726;2023-09-19T00:49:13;95767.47;;;14.35;100.00
54038;BME280;39954;48.844;9.726;2023-09-19T00:50:18;95764.72;;;14.37;100.00
54038;BME280;39954;48.844;9.726;2023-09-19T00:51:23;95764.84;;;14.35;100.00
54038;BME280;39954;48.844;9.726;2023-09-19T00:52:27;95766.66;;;14.35;100.00
54038;BME280;39954;48.844;9.726;2023-09-19T00:53:34;95759.38;;;14.38;100.00
54038;BME280;39954;48.844;9.726;2023-09-19T00:54:36;95760.13;;;14.40;100.00
54038;BME280;39954;48.844;9.726;2023-09-19T00:55:42;95761.75;;;14.41;100.00
54038;BME280;39954;48.844;9.726;2023-09-19T00:56:48;95759.88;;;14.43;100.00
54038;BME280;39954;48.844;9.726;2023-09-19T00:57:56;95759.63;;;14.46;100.00
54038;BME280;39954;48.844;9.726;2023-09-19T00:58:59;95755.38;;;14.45;100.00
54038;BME280;39954;48.844;9.726;2023-09-19T01:00:03;95753.56;;;14.46;100.00
54038;BME280;39954;48.844;9.726;2023-09-19T01:01:10;95762.72;;;14.51;100.00
54038;BME280;39954;48.844;9.726;2023-09-19T01:02:14;95758.22;;;14.53;100.00
54038;BME280;39954;48.844;9.726;2023-09-19T01:03:20;95756.56;;;14.52;100.00
54038;BME280;39954;48.844;9.726;2023-09-19T01:04:23;95759.19;;;14.52;100.00
54038;BME280;39954;48.844;9.726;2023-09-19T01:05:29;95761.03;;;14.50;100.00
54038;BME280;39954;48.844;9.726;2023-09-19T01:06:32;95766.50;;;14.47;100.00
54038;BME280;39954;48.844;9.726;2023-09-19T01:07:38;95761.03;;;14.50;100.00
54038;BME280;39954;48.844;9.726;2023-09-19T01:08:42;95765.44;;;14.50;100.00
54038;BME280;39954;48.844;9.726;2023-09-19T01:09:47;95759.19;;;14.52;100.00
54038;BME280;39954;48.844;9.726;2023-09-19T01:10:52;95758.66;;;14.47;100.00
54038;BME280;39954;48.844;9.726;2023-09-19T01:12:04;95759.88;;;14.43;100.00
54038;BME280;39954;48.844;9.726;2023-09-19T01:13:13;95762.59;;;14.42;100.00
54038;BME280;39954;48.844;9.726;2023-09-19T01:14:32;95767.56;;;14.45;100.00
54038;BME280;39954;48.844;9.726;2023-09-19T01:15:43;95770.31;;;14.43;100.00
54038;BME280;39954;48.844;9.726;2023-09-19T01:16:58;95767.00;;;14.41;100.00
54038;BME280;39954;48.844;9.726;2023-09-19T01:18:11;95760.81;;;14.42;100.00
54038;BME280;39954;48.844;9.726;2023-09-19T01:19:38;95768.44;;;14.34;100.00
54038;BME280;39954;48.844;9.726;2023-09-19T01:20:46;95766.88;;;14.31;100.00
54038;BME280;39954;48.844;9.726;2023-09-19T01:22:04;95769.13;;;14.25;100.00
54038;BME280;39954;48.844;9.726;2023-09-19T01:23:18;95761.50;;;14.22;100.00
54038;BME280;39954;48.844;9.726;2023-09-19T01:24:41;95774.56;;;14.22;100.00
54038;BME280;39954;48.844;9.726;2023-09-19T01:26:14;95768.03;;;14.16;100.00
54038;BME280;39954;48.844;9.726;2023-09-19T01:27:41;95768.88;;;14.17;100.00
54038;BME280;39954;48.844;9.726;2023-09-19T01:29:06;95774.31;;;14.14;100.00
54038;BME280;39954;48.844;9.726;2023-09-19T01:30:22;95769.94;;;14.14;100.00
54038;BME280;39954;48.844;9.726;2023-09-19T01:31:31;95776.59;;;14.18;100.00
54038;BME280;39954;48.844;9.726;2023-09-19T01:32:38;95768.88;;;14.17;100.00
54038;BME280;39954;48.844;9.726;2023-09-19T01:33:56;95773.84;;;14.20;100.00
54038;BME280;39954;48.844;9.726;2023-09-19T01:35:01;95773.84;;;14.20;100.00
54038;BME280;39954;48.844;9.726;2023-09-19T01:36:08;95776.13;;;14.24;100.00
54038;BME280;39954;48.844;9.726;2023-09-19T01:37:11;95771.97;;;14.22;100.00
54038;BME280;39954;48.844;9.726;2023-09-19T01:38:16;95777.19;;;14.22;100.00
54038;BME280;39954;48.844;9.726;2023-09-19T01:39:21;95780.75;;;14.21;100.00
54038;BME280;39954;48.844;9.726;2023-09-19T01:40:26;95778.50;;;14.27;100.00
54038;BME280;39954;48.844;9.726;2023-09-19T01:41:38;95778.41;;;14.29;100.00
54038;BME280;39954;48.844;9.726;2023-09-19T01:42:47;95783.63;;;14.29;100.00
54038;BME280;39954;48.844;9.726;2023-09-19T01:43:53;95778.03;;;14.33;100.00
54038;BME280;39954;48.844;9.726;2023-09-19T01:45:04;95781.50;;;14.34;100.00
54038;BME280;39954;48.844;9.726;2023-09-19T01:46:19;95781.72;;;14.31;100.00
54038;BME280;39954;48.844;9.726;2023-09-19T01:47:27;95779.22;;;14.29;100.00
54038;BME280;39954;48.844;9.726;2023-09-19T01:48:38;95777.44;;;14.30;100.00
54038;BME280;39954;48.844;9.726;2023-09-19T01:49:52;95784.13;;;14.34;100.00
54038;BME280;39954;48.844;9.726;2023-09-19T01:51:06;95779.81;;;14.33;100.00
54038;BME280;39954;48.844;9.726;2023-09-19T01:52:11;95776.47;;;14.31;100.00
54038;BME280;39954;48.844;9.726;2023-09-19T01:53:23;95774.25;;;14.38;100.00
54038;BME280;39954;48.844;9.726;2023-09-19T01:54:31;95779.81;;;14.33;100.00
54038;BME280;39954;48.844;9.726;2023-09-19T01:55:43;95778.41;;;14.29;100.00
54038;BME280;39954;48.844;9.726;2023-09-19T01:56:59;95783.63;;;14.29;100.00
54038;BME280;39954;48.844;9.726;2023-09-19T01:58:08;95780.06;;;14.30;100.00
54038;BME280;39954;48.844;9.726;2023-09-19T01:59:17;95784.22;;;14.32;100.00
54038;BME280;39954;48.844;9.726;2023-09-19T02:00:26;95783.38;;;14.32;100.00
54038;BME280;39954;48.844;9.726;2023-09-19T02:01:32;95789.53;;;14.31;100.00
54038;BME280;39954;48.844;9.726;2023-09-19T02:02:40;95793.03;;;14.31;100.00
54038;BME280;39954;48.844;9.726;2023-09-19T02:03:46;95786.72;;;14.34;100.00
54038;BME280;39954;48.844;9.726;2023-09-19T02:04:54;95793.84;;;14.32;100.00
54038;BME280;39954;48.844;9.726;2023-09-19T02:05:57;95797.38;;;14.31;100.00
54038;BME280;39954;48.844;9.726;2023-09-19T02:07:02;95799.06;;;14.32;100.00
54038;BME280;39954;48.844;9.726;2023-09-19T02:08:07;95798.00;;;14.35;100.00
54038;BME280;39954;48.844;9.726;2023-09-19T02:09:13;95792.53;;;14.38;100.00
54038;BME280;39954;48.844;9.726;2023-09-19T02:10:16;95798.00;;;14.35;100.00
54038;BME280;39954;48.844;9.726;2023-09-19T02:11:21;95801.13;;;14.40;100.00
54038;BME280;39954;48.844;9.726;2023-09-19T02:12:23;95805.13;;;14.44;100.00
54038;BME280;39954;48.844;9.726;2023-09-19T02:13:29;95800.88;;;14.43;100.00
54038;BME280;39954;48.844;9.726;2023-09-19T02:14:33;95802.75;;;14.41;100.00
54038;BME280;39954;48.844;9.726;2023-09-19T02:15:38;95808.81;;;14.41;100.00
54038;BME280;39954;48.844;9.726;2023-09-19T02:16:44;95810.72;;;14.39;100.00
54038;BME280;39954;48.844;9.726;2023-09-19T02:17:49;95803.34;;;14.44;100.00
54038;BME280;39954;48.844;9.726;2023-09-19T02:18:52;95807.53;;;14.47;100.00
54038;BME280;39954;48.844;9.726;2023-09-19T02:19:57;95816.81;;;14.51;100.00
54038;BME280;39954;48.844;9.726;2023-09-19T02:21:00;95811.91;;;14.46;100.00
54038;BME280;39954;48.844;9.726;2023-09-19T02:22:06;95810.25;;;14.45;100.00
54038;BME280;39954;48.844;9.726;2023-09-19T02:23:10;95803.34;;;14.44;100.00
54038;BME280;39954;48.844;9.726;2023-09-19T02:24:15;95809.31;;;14.46;100.00
54038;BME280;39954;48.844;9.726;2023-09-19T02:25:17;95810.84;;;14.49;100.00
54038;BME280;39954;48.844;9.726;2023-09-19T02:26:22;95801.47;;;14.46;100.00
54038;BME280;39954;48.844;9.726;2023-09-19T02:27:29;95811.91;;;14.46;100.00
54038;BME280;39954;48.844;9.726;2023-09-19T02:28:34;95809.31;;;14.46;100.00
54038;BME280;39954;48.844;9.726;2023-09-19T02:29:37;95815.94;;;14.50;100.00
54038;BME280;39954;48.844;9.726;2023-09-19T02:30:42;95816.91;;;14.49;100.00
54038;BME280;39954;48.844;9.726;2023-09-19T02:31:47;95818.69;;;14.49;100.00
54038;BME280;39954;48.844;9.726;2023-09-19T02:32:52;95810.03;;;14.48;100.00
54038;BME280;39954;48.844;9.726;2023-09-19T02:33:55;95814.41;;;14.48;100.00
54038;BME280;39954;48.844;9.726;2023-09-19T02:34:59;95813.56;;;14.47;100.00
54038;BME280;39954;48.844;9.726;2023-09-19T02:36:02;95813.56;;;14.47;100.00
54038;BME280;39954;48.844;9.726;2023-09-19T02:37:07;95817.16;;;14.46;100.00
54038;BME280;39954;48.844;9.726;2023-09-19T02:38:10;95812.75;;;14.47;100.00
54038;BME280;39954;48.844;9.726;2023-09-19T02:39:16;95814.53;;;14.46;100.00
54038;BME280;39954;48.844;9.726;2023-09-19T02:40:18;95812.97;;;14.44;100.00
54038;BME280;39954;48.844;9.726;2023-09-19T02:41:24;95819.88;;;14.45;100.00
54038;BME280;39954;48.844;9.726;2023-09-19T02:42:26;95821.78;;;14.43;100.00
54038;BME280;39954;48.844;9.726;2023-09-19T02:43:32;95826.66;;;14.47;100.00
54038;BME280;39954;48.844;9.726;2023-09-19T02:44:35;95822.13;;;14.49;100.00
54038;BME280;39954;48.844;9.726;2023-09-19T02:45:37;95824.03;;;14.47;100.00
54038;BME280;39954;48.844;9.726;2023-09-19T02:46:42;95825.94;;;14.45;100.00
54038;BME280;39954;48.844;9.726;2023-09-19T02:47:48;95822.63;;;14.43;100.00
54038;BME280;39954;48.844;9.726;2023-09-19T02:48:56;95819.50;;;14.38;100.00
54038;BME280;39954;48.844;9.726;2023-09-19T02:49:58;95818.69;;;14.38;100.00
54038;BME280;39954;48.844;9.726;2023-09-19T02:51:03;95823.31;;;14.34;100.00
54038;BME280;39954;48.844;9.726;2023-09-19T02:52:06;95819.97;;;14.32;100.00
54038;BME280;39954;48.844;9.726;2023-09-19T02:53:13;95821.28;;;14.26;100.00
54038;BME280;39954;48.844;9.726;2023-09-19T02:54:15;95829.47;;;14.22;100.00
54038;BME280;39954;48.844;9.726;2023-09-19T02:55:21;95822.19;;;14.14;100.00
54038;BME280;39954;48.844;9.726;2023-09-19T02:56:23;95822.56;;;14.09;100.00
54038;BME280;39954;48.844;9.726;2023-09-19T02:57:28;95828.84;;;14.07;100.00
54038;BME280;39954;48.844;9.726;2023-09-19T02:58:31;95832.50;;;14.04;100.00
54038;BME280;39954;48.844;9.726;2023-09-19T02:59:37;95825.88;;;14.00;100.00
54038;BME280;39954;48.844;9.726;2023-09-19T03:00:40;95831.19;;;13.99;100.00
54038;BME280;39954;48.844;9.726;2023-09-19T03:01:50;95829.13;;;13.91;100.00
54038;BME280;39954;48.844;9.726;2023-09-19T03:02:55;95840.41;;;13.92;100.00
54038;BME280;39954;48.844;9.726;2023-09-19T03:04:01;95836.16;;;13.91;100.00
54038;BME280;39954;48.844;9.726;2023-09-19T03:05:05;95828.41;;;13.89;100.00
54038;BME280;39954;48.844;9.726;2023-09-19T03:06:13;95832.44;;;13.82;100.00
54038;BME280;39954;48.844;9.726;2023-09-19T03:07:16;95830.97;;;13.78;100.00
54038;BME280;39954;48.844;9.726;2023-09-19T03:08:22;95825.75;;;13.78;100.00
54038;BME280;39954;48.844;9.726;2023-09-19T03:09:25;95830.28;;;13.76;100.00
54038;BME280;39954;48.844;9.726;2023-09-19T03:10:31;95831.44;;;13.72;100.00
54038;BME280;39954;48.844;9.726;2023-09-19T03:11:36;95840.47;;;13.68;100.00
54038;BME280;39954;48.844;9.726;2023-09-19T03:12:42;95842.47;;;13.64;100.00
54038;BME280;39954;48.844;9.726;2023-09-19T03:13:44;95850.63;;;13.59;100.00
54038;BME280;39954;48.844;9.726;2023-09-19T03:14:49;95843.38;;;13.63;100.00
54038;BME280;39954;48.844;9.726;2023-09-19T03:15:54;95849.88;;;13.57;100.00
54038;BME280;39954;48.844;9.726;2023-09-19T03:17:00;95844.06;;;13.54;100.00
54038;BME280;39954;48.844;9.726;2023-09-19T03:18:05;95852.22;;;13.49;100.00
54038;BME280;39954;48.844;9.726;2023-09-19T03:19:10;95842.00;;;13.46;100.00
54038;BME280;39954;48.844;9.726;2023-09-19T03:20:14;95851.00;;;13.42;100.00
54038;BME280;39954;48.844;9.726;2023-09-19T03:21:19;95851.44;;;13.36;100.00
54038;BME280;39954;48.844;9.726;2023-09-19T03:22:22;95841.44;;;13.30;100.00
54038;BME280;39954;48.844;9.726;2023-09-19T03:23:29;95845.41;;;13.23;100.00
54038;BME280;39954;48.844;9.726;2023-09-19T03:24:31;95851.06;;;13.16;100.00
54038;BME280;39954;48.844;9.726;2023-09-19T03:25:38;95849.81;;;13.09;100.00
54038;BME280;39954;48.844;9.726;2023-09-19T03:26:41;95853.59;;;13.05;100.00
54038;BME280;39954;48.844;9.726;2023-09-19T03:27:47;95846.91;;;13.01;100.00
54038;BME280;39954;48.844;9.726;2023-09-19T03:28:49;95848.78;;;12.99;100.00
54038;BME280;39954;48.844;9.726;2023-09-19T03:29:54;95850.69;;;12.97;100.00
54038;BME280;39954;48.844;9.726;2023-09-19T03:30:58;95856.75;;;12.97;100.00
54038;BME280;39954;48.844;9.726;2023-09-19T03:32:05;95854.81;;;13.12;100.00
54038;BME280;39954;48.844;9.726;2023-09-19T03:33:11;95852.94;;;13.14;100.00
54038;BME280;39954;48.844;9.726;2023-09-19T03:34:14;95852.72;;;13.17;100.00
54038;BME280;39954;48.844;9.726;2023-09-19T03:35:19;95854.81;;;13.12;100.00
54038;BME280;39954;48.844;9.726;2023-09-19T03:36:21;95850.94;;;13.18;100.00
54038;BME280;39954;48.844;9.726;2023-09-19T03:37:26;95858.03;;;13.16;100.00
54038;BME280;39954;48.844;9.726;2023-09-19T03:38:28;95853.88;;;13.13;100.00
54038;BME280;39954;48.844;9.726;2023-09-19T03:39:34;95855.72;;;13.24;100.00
54038;BME280;39954;48.844;9.726;2023-09-19T03:40:36;95851.44;;;13.23;100.00
54038;BME280;39954;48.844;9.726;2023-09-19T03:41:41;95848.66;;;13.26;100.00
54038;BME280;39954;48.844;9.726;2023-09-19T03:42:44;95854.38;;;13.31;100.00
54038;BME280;39954;48.844;9.726;2023-09-19T03:43:50;95853.34;;;13.34;100.00
54038;BME280;39954;48.844;9.726;2023-09-19T03:44:52;95846.09;;;13.37;100.00
54038;BME280;39954;48.844;9.726;2023-09-19T03:46:01;95849.44;;;13.39;100.00
54038;BME280;39954;48.844;9.726;2023-09-19T03:47:04;95856.22;;;13.42;100.00
54038;BME280;39954;48.844;9.726;2023-09-19T03:48:12;95848.41;;;13.42;100.00
54038;BME280;39954;48.844;9.726;2023-09-19T03:49:15;95854.31;;;13.44;100.00
54038;BME280;39954;48.844;9.726;2023-09-19T03:50:21;95833.44;;;13.44;100.00
54038;BME280;39954;48.844;9.726;2023-09-19T03:51:25;95835.13;;;13.45;100.00
54038;BME280;39954;48.844;9.726;2023-09-19T03:52:30;95844.75;;;13.45;100.00
54038;BME280;39954;48.844;9.726;2023-09-19T03:53:32;95835.94;;;13.46;100.00
54038;BME280;39954;48.844;9.726;2023-09-19T03:54:37;95845.66;;;13.43;100.00
54038;BME280;39954;48.844;9.726;2023-09-19T03:55:39;95836.78;;;13.46;100.00
54038;BME280;39954;48.844;9.726;2023-09-19T03:56:45;95848.91;;;13.47;100.00
54038;BME280;39954;48.844;9.726;2023-09-19T03:57:48;95852.22;;;13.49;100.00
54038;BME280;39954;48.844;9.726;2023-09-19T03:58:54;95846.28;;;13.47;100.00
54038;BME280;39954;48.844;9.726;2023-09-19T03:59:57;95849.50;;;13.51;100.00
54038;BME280;39954;48.844;9.726;2023-09-19T04:01:02;95848.47;;;13.53;100.00
54038;BME280;39954;48.844;9.726;2023-09-19T04:02:04;95853.91;;;13.50;100.00
54038;BME280;39954;48.844;9.726;2023-09-19T04:03:16;95848.69;;;13.50;100.00
54038;BME280;39954;48.844;9.726;2023-09-19T04:04:22;95857.44;;;13.49;100.00
54038;BME280;39954;48.844;9.726;2023-09-19T04:05:27;95855.66;;;13.50;100.00
54038;BME280;39954;48.844;9.726;2023-09-19T04:06:30;95853.91;;;13.50;100.00
54038;BME280;39954;48.844;9.726;2023-09-19T04:07:35;95859.72;;;13.54;100.00
54038;BME280;39954;48.844;9.726;2023-09-19T04:08:37;95855.56;;;13.51;100.00
54038;BME280;39954;48.844;9.726;2023-09-19T04:09:44;95857.13;;;13.54;100.00
54038;BME280;39954;48.844;9.726;2023-09-19T04:10:47;95853.22;;;13.59;100.00
54038;BME280;39954;48.844;9.726;2023-09-19T04:11:53;95851.56;;;13.58;100.00
54038;BME280;39954;48.844;9.726;2023-09-19T04:12:56;95860.09;;;13.60;100.00
54038;BME280;39954;48.844;9.726;2023-09-19T04:14:03;95852.50;;;13.57;100.00
54038;BME280;39954;48.844;9.726;2023-09-19T04:15:06;95850.94;;;13.55;100.00
54038;BME280;39954;48.844;9.726;2023-09-19T04:16:15;95853.69;;;13.53;100.00
54038;BME280;39954;48.844;9.726;2023-09-19T04:17:17;95858.06;;;13.53;100.00
54038;BME280;39954;48.844;9.726;2023-09-19T04:18:25;95853.91;;;13.50;100.00
54038;BME280;39954;48.844;9.726;2023-09-19T04:19:33;95859.22;;;13.49;100.00
54038;BME280;39954;48.844;9.726;2023-09-19T04:20:35;95857.22;;;13.52;100.00
54038;BME280;39954;48.844;9.726;2023-09-19T04:21:40;95856.75;;;13.47;100.00
54038;BME280;39954;48.844;9.726;2023-09-19T04:22:43;95854.97;;;13.48;100.00
54038;BME280;39954;48.844;9.726;2023-09-19T04:23:48;95855.06;;;13.46;100.00
54038;BME280;39954;48.844;9.726;2023-09-19T04:24:51;95857.56;;;13.48;100.00
54038;BME280;39954;48.844;9.726;2023-09-19T04:25:55;95860.56;;;13.54;100.00
54038;BME280;39954;48.844;9.726;2023-09-19T04:26:58;95865.28;;;13.49;100.00
54038;BME280;39954;48.844;9.726;2023-09-19T04:28:06;95860.19;;;13.48;100.00
54038;BME280;39954;48.844;9.726;2023-09-19T04:29:09;95861.84;;;13.49;100.00
54038;BME280;39954;48.844;9.726;2023-09-19T04:30:15;95875.72;;;13.49;100.00
54038;BME280;39954;48.844;9.726;2023-09-19T04:31:18;95864.00;;;13.55;100.00
54038;BME280;39954;48.844;9.726;2023-09-19T04:32:23;95872.94;;;13.63;100.00
54038;BME280;39954;48.844;9.726;2023-09-19T04:33:28;95874.72;;;13.63;100.00
54038;BME280;39954;48.844;9.726;2023-09-19T04:34:37;95873.91;;;13.62;100.00
54038;BME280;39954;48.844;9.726;2023-09-19T04:35:40;95872.94;;;13.63;100.00
54038;BME280;39954;48.844;9.726;2023-09-19T04:36:45;95869.91;;;13.70;100.00
54038;BME280;39954;48.844;9.726;2023-09-19T04:37:48;95870.72;;;13.70;100.00
54038;BME280;39954;48.844;9.726;2023-09-19T04:38:53;95877.50;;;13.73;100.00
54038;BME280;39954;48.844;9.726;2023-09-19T04:39:55;95869.56;;;13.74;100.00
54038;BME280;39954;48.844;9.726;2023-09-19T04:40:58;95872.91;;;13.76;100.00
54038;BME280;39954;48.844;9.726;2023-09-19T04:42:04;95871.13;;;13.77;100.00
54038;BME280;39954;48.844;9.726;2023-09-19T04:43:06;95878.00;;;13.78;100.00
54038;BME280;39954;48.844;9.726;2023-09-19T04:44:09;95872.56;;;13.81;100.00
54038;BME280;39954;48.844;9.726;2023-09-19T04:45:14;95869.97;;;13.81;100.00
54038;BME280;39954;48.844;9.726;2023-09-19T04:46:17;95874.72;;;13.87;100.00
54038;BME280;39954;48.844;9.726;2023-09-19T04:47:23;95877.34;;;13.87;100.00
54038;BME280;39954;48.844;9.726;2023-09-19T04:48:27;95876.38;;;13.88;100.00
54038;BME280;39954;48.844;9.726;2023-09-19T04:49:33;95878.16;;;13.87;100.00
54038;BME280;39954;48.844;9.726;2023-09-19T04:50:37;95875.66;;;13.86;100.00
54038;BME280;39954;48.844;9.726;2023-09-19T04:51:42;95878.41;;;13.84;100.00
54038;BME280;39954;48.844;9.726;2023-09-19T04:52:45;95880.06;;;13.85;100.00
54038;BME280;39954;48.844;9.726;2023-09-19T04:53:47;95881.75;;;13.86;100.00
54038;BME280;39954;48.844;9.726;2023-09-19T04:54:52;95875.44;;;13.89;100.00
54038;BME280;39954;48.844;9.726;2023-09-19T04:55:55;95878.78;;;13.91;100.00
54038;BME280;39954;48.844;9.726;2023-09-19T04:57:00;95874.03;;;13.96;100.00
54038;BME280;39954;48.844;9.726;2023-09-19T04:58:02;95881.88;;;13.96;100.00
54038;BME280;39954;48.844;9.726;2023-09-19T04:59:08;95883.53;;;13.97;100.00
54038;BME280;39954;48.844;9.726;2023-09-19T05:00:13;95890.44;;;13.98;100.00
54038;BME280;39954;48.844;9.726;2023-09-19T05:01:18;95885.22;;;13.98;100.00
54038;BME280;39954;48.844;9.726;2023-09-19T05:02:21;95885.00;;;14.01;100.00
54038;BME280;39954;48.844;9.726;2023-09-19T05:03:28;95882.47;;;14.00;100.00
54038;BME280;39954;48.844;9.726;2023-09-19T05:04:31;95885.59;;;14.05;100.00
54038;BME280;39954;48.844;9.726;2023-09-19T05:05:36;95885.72;;;14.03;100.00
54038;BME280;39954;48.844;9.726;2023-09-19T05:06:42;95883.34;;;14.00;100.00
54038;BME280;39954;48.844;9.726;2023-09-19T05:07:48;95891.19;;;14.00;100.00
54038;BME280;39954;48.844;9.726;2023-09-19T05:08:50;95888.75;;;13.97;100.00
54038;BME280;39954;48.844;9.726;2023-09-19T05:09:55;95888.75;;;13.97;100.00
54038;BME280;39954;48.844;9.726;2023-09-19T05:10:57;95887.09;;;13.96;100.00
54038;BME280;39954;48.844;9.726;2023-09-19T05:12:03;95890.44;;;13.98;100.00
54038;BME280;39954;48.844;9.726;2023-09-19T05:13:06;95888.56;;;14.00;100.00
54038;BME280;39954;48.844;9.726;2023-09-19T05:14:12;95893.06;;;13.98;100.00
54038;BME280;39954;48.844;9.726;2023-09-19T05:15:14;95893.78;;;14.00;100.00
54038;BME280;39954;48.844;9.726;2023-09-19T05:16:19;95890.22;;;14.01;100.00
54038;BME280;39954;48.844;9.726;2023-09-19T05:17:22;95896.28;;;14.02;100.00
54038;BME280;39954;48.844;9.726;2023-09-19T05:18:30;95892.50;;;14.06;100.00
54038;BME280;39954;48.844;9.726;2023-09-19T05:19:34;95907.09;;;14.08;100.00
54038;BME280;39954;48.844;9.726;2023-09-19T05:20:38;95903.31;;;14.13;100.00
54038;BME280;39954;48.844;9.726;2023-09-19T05:21:41;95904.97;;;14.14;100.00
54038;BME280;39954;48.844;9.726;2023-09-19T05:22:47;95899.97;;;14.10;100.00
54038;BME280;39954;48.844;9.726;2023-09-19T05:23:51;95907.72;;;14.12;100.00
54038;BME280;39954;48.844;9.726;2023-09-19T05:24:56;95897.13;;;14.14;100.00
54038;BME280;39954;48.844;9.726;2023-09-19T05:25:59;95895.59;;;14.11;100.00
54038;BME280;39954;48.844;9.726;2023-09-19T05:27:05;95903.56;;;14.09;100.00
54038;BME280;39954;48.844;9.726;2023-09-19T05:28:10;95905.13;;;14.12;100.00
54038;BME280;39954;48.844;9.726;2023-09-19T05:29:17;95907.72;;;14.12;100.00
54038;BME280;39954;48.844;9.726;2023-09-19T05:30:19;95905.94;;;14.13;100.00
54038;BME280;39954;48.844;9.726;2023-09-19T05:31:24;95911.66;;;14.18;100.00
54038;BME280;39954;48.844;9.726;2023-09-19T05:32:27;95903.47;;;14.22;100.00
54038;BME280;39954;48.844;9.726;2023-09-19T05:33:35;95907.25;;;14.18;100.00
54038;BME280;39954;48.844;9.726;2023-09-19T05:34:37;95910.38;;;14.23;100.00
54038;BME280;39954;48.844;9.726;2023-09-19T05:35:42;95907.41;;;14.28;100.00
54038;BME280;39954;48.844;9.726;2023-09-19T05:36:45;95910.66;;;14.31;100.00
54038;BME280;39954;48.844;9.726;2023-09-19T05:37:51;95901.84;;;14.32;100.00
54038;BME280;39954;48.844;9.726;2023-09-19T05:38:53;95907.41;;;14.28;100.00
54038;BME280;39954;48.844;9.726;2023-09-19T05:39:58;95910.75;;;14.30;100.00
54038;BME280;39954;48.844;9.726;2023-09-19T05:41:00;95907.56;;;14.38;100.00
54038;BME280;39954;48.844;9.726;2023-09-19T05:42:05;95913.13;;;14.33;100.00
54038;BME280;39954;48.844;9.726;2023-09-19T05:43:10;95911.81;;;14.27;100.00